createdAt,value
2023-03-11T00:00:47.393Z,85.24
2023-03-11T00:03:17.000Z,84.82
2023-03-11T00:05:46.559Z,84.89
2023-03-11T00:08:17.803Z,84.94
2023-03-11T00:10:47.913Z,85.22
2023-03-11T00:13:16.604Z,84.87
2023-03-11T00:15:49.675Z,85.51
2023-03-11T00:18:17.946Z,85.45
2023-03-11T00:20:47.016Z,85.06
2023-03-11T00:23:15.227Z,85.54
2023-03-11T00:25:45.293Z,85.20
2023-03-11T00:28:13.496Z,84.96
2023-03-11T00:30:42.492Z,85.68
2023-03-11T00:33:12.425Z,85.58
2023-03-11T00:35:39.608Z,85.72
2023-03-11T00:38:09.206Z,85.61
2023-03-11T00:40:41.715Z,85.72
2023-03-11T00:43:08.855Z,85.98
2023-03-11T00:45:35.985Z,85.96
2023-03-11T00:48:03.644Z,85.10
2023-03-11T00:50:34.694Z,85.15
2023-03-11T00:53:04.296Z,84.89
2023-03-11T00:55:34.657Z,84.43
2023-03-11T00:58:05.787Z,84.66
2023-03-11T01:00:33.829Z,84.74
2023-03-11T01:03:01.063Z,84.81
2023-03-11T01:05:33.799Z,84.84
2023-03-11T01:08:01.369Z,84.98
2023-03-11T01:10:30.987Z,85.24
2023-03-11T01:12:58.299Z,85.56
2023-03-11T01:15:32.023Z,85.44
2023-03-11T01:17:59.216Z,85.49
2023-03-11T01:20:26.887Z,85.53
2023-03-11T01:22:54.140Z,85.45
2023-03-11T01:25:23.742Z,85.64
2023-03-11T01:27:51.328Z,86.01
2023-03-11T01:30:22.918Z,85.34
2023-03-11T01:32:51.367Z,85.84
2023-03-11T01:35:21.446Z,86.18
2023-03-11T01:37:48.514Z,86.08
2023-03-11T01:40:39.222Z,86.07
2023-03-11T01:43:36.967Z,86.52
2023-03-11T01:46:37.570Z,86.10
2023-03-11T01:49:06.279Z,86.08
2023-03-11T01:51:42.801Z,86.10
2023-03-11T01:54:22.036Z,86.20
2023-03-11T01:56:50.744Z,86.33
2023-03-11T01:59:26.164Z,86.27
2023-03-11T02:02:28.179Z,86.46
2023-03-11T02:04:55.768Z,86.40
2023-03-11T02:07:22.946Z,85.73
2023-03-11T02:09:50.002Z,85.56
2023-03-11T02:12:17.619Z,85.85
2023-03-11T02:14:49.295Z,86.02
2023-03-11T02:17:17.040Z,84.92
2023-03-11T02:20:06.334Z,85.20
2023-03-11T02:22:34.939Z,85.38
2023-03-11T02:25:27.260Z,85.14
2023-03-11T02:27:55.719Z,85.13
2023-03-11T02:30:25.848Z,85.04
2023-03-11T02:32:53.492Z,85.08
2023-03-11T02:35:21.628Z,85.42
2023-03-11T02:37:52.676Z,85.37
2023-03-11T02:40:26.961Z,85.19
2023-03-11T02:43:01.619Z,85.34
2023-03-11T02:45:31.868Z,85.03
2023-03-11T02:48:00.621Z,85.15
2023-03-11T02:50:30.336Z,85.28
2023-03-11T02:52:57.377Z,85.53
2023-03-11T02:55:24.485Z,84.54
2023-03-11T02:57:51.457Z,84.86
2023-03-11T03:00:19.291Z,84.58
2023-03-11T03:02:47.117Z,84.27
2023-03-11T03:05:14.145Z,84.46
2023-03-11T03:07:41.121Z,84.45
2023-03-11T03:10:09.648Z,84.12
2023-03-11T03:12:36.829Z,84.02
2023-03-11T03:15:04.595Z,84.31
2023-03-11T03:17:31.662Z,84.07
2023-03-11T03:19:58.743Z,84.33
2023-03-11T03:22:27.609Z,84.12
2023-03-11T03:24:54.635Z,84.31
2023-03-11T03:27:21.700Z,84.34
2023-03-11T03:29:48.760Z,84.56
2023-03-11T03:32:15.796Z,84.33
2023-03-11T03:34:42.778Z,83.80
2023-03-11T03:37:09.812Z,83.79
2023-03-11T03:39:36.836Z,83.83
2023-03-11T03:42:04.037Z,83.92
2023-03-11T03:44:31.084Z,84.14
2023-03-11T03:46:58.090Z,83.86
2023-03-11T03:49:25.103Z,83.85
2023-03-11T03:51:52.176Z,83.68
2023-03-11T03:54:19.299Z,83.79
2023-03-11T03:56:46.313Z,83.98
2023-03-11T03:59:13.776Z,84.00
2023-03-11T04:01:40.760Z,83.91
2023-03-11T04:04:07.727Z,83.88
2023-03-11T04:06:34.796Z,83.81
2023-03-11T04:09:01.892Z,83.75
2023-03-11T04:11:28.878Z,83.48
2023-03-11T04:13:55.893Z,83.63
2023-03-11T04:16:24.670Z,83.56
2023-03-11T04:18:51.946Z,83.64
2023-03-11T04:21:19.425Z,83.86
2023-03-11T04:23:46.500Z,83.94
2023-03-11T04:26:13.654Z,84.23
2023-03-11T04:28:40.659Z,84.33
2023-03-11T04:31:08.270Z,84.14
2023-03-11T04:33:35.305Z,83.86
2023-03-11T04:36:08.095Z,84.47
2023-03-11T04:38:35.677Z,84.34
2023-03-11T04:41:07.389Z,84.18
2023-03-11T04:43:35.145Z,83.87
2023-03-11T04:46:02.206Z,84.06
2023-03-11T04:48:29.235Z,83.90
2023-03-11T04:50:56.621Z,83.94
2023-03-11T04:53:24.573Z,84.10
2023-03-11T04:55:52.458Z,84.14
2023-03-11T04:58:20.230Z,84.16
2023-03-11T05:00:47.318Z,84.38
2023-03-11T05:03:14.484Z,84.32
2023-03-11T05:05:41.576Z,84.69
2023-03-11T05:08:08.727Z,84.43
2023-03-11T05:10:36.789Z,84.42
2023-03-11T05:13:03.857Z,84.38
2023-03-11T05:15:31.584Z,84.21
2023-03-11T05:17:58.706Z,84.41
2023-03-11T05:20:25.753Z,85.17
2023-03-11T05:22:52.807Z,84.79
2023-03-11T05:25:19.824Z,84.79
2023-03-11T05:27:46.864Z,84.62
2023-03-11T05:30:15.363Z,84.47
2023-03-11T05:32:42.419Z,84.34
2023-03-11T05:35:09.780Z,84.92
2023-03-11T05:37:39.183Z,84.79
2023-03-11T05:40:08.219Z,84.70
2023-03-11T05:42:35.489Z,85.06
2023-03-11T05:45:02.455Z,84.98
2023-03-11T05:47:29.487Z,85.19
2023-03-11T05:49:56.701Z,85.21
2023-03-11T05:52:23.689Z,85.13
2023-03-11T05:54:52.300Z,84.98
2023-03-11T05:57:20.013Z,85.13
2023-03-11T05:59:47.171Z,85.38
2023-03-11T06:02:14.203Z,85.75
2023-03-11T06:04:41.340Z,85.35
2023-03-11T06:07:08.483Z,85.59
2023-03-11T06:09:38.532Z,85.17
2023-03-11T06:12:06.373Z,85.66
2023-03-11T06:14:33.419Z,85.54
2023-03-11T06:17:00.466Z,85.30
2023-03-11T06:19:27.446Z,85.31
2023-03-11T06:21:54.492Z,85.52
2023-03-11T06:24:21.472Z,85.44
2023-03-11T06:26:52.763Z,85.43
2023-03-11T06:29:21.876Z,85.12
2023-03-11T06:31:48.992Z,85.34
2023-03-11T06:34:16.120Z,85.42
2023-03-11T06:36:43.245Z,85.54
2023-03-11T06:39:14.717Z,85.16
2023-03-11T06:41:42.821Z,85.96
2023-03-11T06:44:12.699Z,85.19
2023-03-11T06:46:40.463Z,85.11
2023-03-11T06:49:07.579Z,85.62
2023-03-11T06:51:35.058Z,85.69
2023-03-11T06:54:02.089Z,85.58
2023-03-11T06:56:29.188Z,85.30
2023-03-11T06:58:56.261Z,85.63
2023-03-11T07:01:25.965Z,85.50
2023-03-11T07:03:53.423Z,85.42
2023-03-11T07:06:24.366Z,85.44
2023-03-11T07:08:52.995Z,85.43
2023-03-11T07:11:23.368Z,85.61
2023-03-11T07:13:51.309Z,85.34
2023-03-11T07:16:24.764Z,85.77
2023-03-11T07:18:53.302Z,85.82
2023-03-11T07:21:22.732Z,85.74
2023-03-11T07:23:57.252Z,85.89
2023-03-11T07:26:25.437Z,85.66
2023-03-11T07:28:54.415Z,85.48
2023-03-11T07:31:28.316Z,85.48
2023-03-11T07:33:59.458Z,85.65
2023-03-11T07:36:28.657Z,85.48
2023-03-11T07:39:04.259Z,85.42
2023-03-11T07:41:34.342Z,85.63
2023-03-11T07:44:03.909Z,85.76
2023-03-11T07:46:31.560Z,85.68
2023-03-11T07:48:58.917Z,85.60
2023-03-11T07:51:29.832Z,85.13
2023-03-11T07:53:59.187Z,85.23
2023-03-11T07:56:30.232Z,85.78
2023-03-11T07:59:02.731Z,85.85
2023-03-11T08:01:36.370Z,85.43
2023-03-11T08:04:09.637Z,85.74
2023-03-11T08:06:37.895Z,85.83
2023-03-11T08:09:10.167Z,85.94
2023-03-11T08:11:38.119Z,85.51
2023-03-11T08:14:05.993Z,85.22
2023-03-11T08:16:33.704Z,85.56
2023-03-11T08:19:00.817Z,85.51
2023-03-11T08:21:32.167Z,85.67
2023-03-11T08:24:02.616Z,85.59
2023-03-11T08:26:31.227Z,85.66
2023-03-11T08:28:59.042Z,85.78
2023-03-11T08:31:30.380Z,85.88
2023-03-11T08:34:08.575Z,85.15
2023-03-11T08:36:35.833Z,85.64
2023-03-11T08:39:03.658Z,85.92
2023-03-11T08:41:30.823Z,85.90
2023-03-11T08:43:58.116Z,86.58
2023-03-11T08:46:30.885Z,86.89
2023-03-11T08:49:01.077Z,87.19
2023-03-11T08:51:30.071Z,87.34
2023-03-11T08:53:57.677Z,86.86
2023-03-11T08:56:25.163Z,86.82
2023-03-11T08:58:52.837Z,86.88
2023-03-11T09:01:23.836Z,86.99
2023-03-11T09:03:51.347Z,87.14
2023-03-11T09:06:18.902Z,87.18
2023-03-11T09:08:46.826Z,87.21
2023-03-11T09:11:15.799Z,86.90
2023-03-11T09:13:43.781Z,86.84
2023-03-11T09:16:24.619Z,86.73
2023-03-11T09:18:51.782Z,87.48
2023-03-11T09:21:18.887Z,87.49
2023-03-11T09:23:46.486Z,87.49
2023-03-11T09:26:13.854Z,87.59
2023-03-11T09:28:42.376Z,87.49
2023-03-11T09:31:09.911Z,86.83
2023-03-11T09:33:40.519Z,85.43
2023-03-11T09:36:13.053Z,85.11
2023-03-11T09:38:40.274Z,84.18
2023-03-11T09:41:29.624Z,82.73
2023-03-11T09:44:37.671Z,82.63
2023-03-11T09:47:57.837Z,82.23
2023-03-11T09:50:33.880Z,80.61
2023-03-11T09:53:34.089Z,79.85
2023-03-11T09:56:06.209Z,79.02
2023-03-11T09:58:52.797Z,77.61
2023-03-11T10:01:44.874Z,76.78
2023-03-11T10:04:27.033Z,75.58
2023-03-11T10:06:54.715Z,75.38
2023-03-11T10:09:56.729Z,75.11
2023-03-11T10:12:51.713Z,75.02
2023-03-11T10:15:59.903Z,74.69
2023-03-11T10:18:43.029Z,74.80
2023-03-11T10:21:44.957Z,74.48
2023-03-11T10:24:55.639Z,74.49
2023-03-11T10:27:51.515Z,74.82
2023-03-11T10:30:36.373Z,74.77
2023-03-11T10:33:33.931Z,74.76
2023-03-11T10:36:08.911Z,75.35
2023-03-11T10:38:49.052Z,75.69
2023-03-11T10:41:51.086Z,76.30
2023-03-11T10:44:34.757Z,76.00
2023-03-11T10:47:02.504Z,75.74
2023-03-11T10:49:30.690Z,75.51
2023-03-11T10:51:58.239Z,74.98
2023-03-11T10:54:46.271Z,74.15
2023-03-11T10:57:48.932Z,73.11
2023-03-11T11:00:31.496Z,71.95
2023-03-11T11:02:59.913Z,71.89
2023-03-11T11:05:34.170Z,71.04
2023-03-11T11:08:13.173Z,70.39
2023-03-11T11:10:55.534Z,69.82
2023-03-11T11:13:34.477Z,70.01
2023-03-11T11:16:20.996Z,69.87
2023-03-11T11:18:57.057Z,69.93
2023-03-11T11:21:38.299Z,69.71
2023-03-11T11:24:31.581Z,68.88
2023-03-11T11:27:29.364Z,68.22
2023-03-11T11:30:11.273Z,67.82
2023-03-11T11:32:38.811Z,67.75
2023-03-11T11:35:15.805Z,67.65
2023-03-11T11:37:48.719Z,67.23
2023-03-11T11:40:15.922Z,66.77
2023-03-11T11:43:12.538Z,66.85
2023-03-11T11:45:44.391Z,67.54
2023-03-11T11:48:41.390Z,67.44
2023-03-11T11:51:36.652Z,67.33
2023-03-11T11:54:34.459Z,68.19
2023-03-11T11:57:10.376Z,68.17
2023-03-11T11:59:37.583Z,68.61
2023-03-11T12:02:07.686Z,69.38
2023-03-11T12:04:48.565Z,69.88
2023-03-11T12:07:46.298Z,70.06
2023-03-11T12:10:23.900Z,70.04
2023-03-11T12:13:11.675Z,70.33
2023-03-11T12:16:14.238Z,70.84
2023-03-11T12:18:54.455Z,70.75
2023-03-11T12:21:58.421Z,70.42
2023-03-11T12:24:40.301Z,69.99
2023-03-11T12:27:34.478Z,69.92
2023-03-11T12:30:16.704Z,69.70
2023-03-11T12:32:56.382Z,70.15
2023-03-11T12:35:36.049Z,69.64
2023-03-11T12:38:31.325Z,69.32
2023-03-11T12:41:06.321Z,69.60
2023-03-11T12:43:35.863Z,69.74
2023-03-11T12:46:06.091Z,70.27
2023-03-11T12:48:50.981Z,69.84
2023-03-11T12:51:27.129Z,69.67
2023-03-11T12:53:55.926Z,70.34
2023-03-11T12:56:45.293Z,70.42
2023-03-11T12:59:20.957Z,70.24
2023-03-11T13:01:53.743Z,70.81
2023-03-11T13:04:48.781Z,70.18
2023-03-11T13:07:51.562Z,70.89
2023-03-11T13:10:41.639Z,70.76
2023-03-11T13:13:40.727Z,71.54
2023-03-11T13:16:14.394Z,72.11
2023-03-11T13:18:44.496Z,71.90
2023-03-11T13:21:32.581Z,71.91
2023-03-11T13:24:22.109Z,72.53
2023-03-11T13:27:02.245Z,72.37
2023-03-11T13:30:10.425Z,72.07
2023-03-11T13:33:16.661Z,72.35
2023-03-11T13:36:10.793Z,72.41
2023-03-11T13:39:28.373Z,72.27
2023-03-11T13:41:56.072Z,72.56
2023-03-11T13:44:31.852Z,72.30
2023-03-11T13:47:13.915Z,72.11
2023-03-11T13:50:07.626Z,72.21
2023-03-11T13:52:47.514Z,72.51
2023-03-11T13:55:43.151Z,73.06
2023-03-11T13:58:26.201Z,73.12
2023-03-11T14:01:02.032Z,73.39
2023-03-11T14:03:40.597Z,73.04
2023-03-11T14:06:18.072Z,71.70
2023-03-11T14:08:57.728Z,71.73
2023-03-11T14:11:29.743Z,71.64
2023-03-11T14:13:56.997Z,71.17
2023-03-11T14:16:36.045Z,71.20
2023-03-11T14:19:19.273Z,71.09
2023-03-11T14:21:54.865Z,69.92
2023-03-11T14:24:31.276Z,69.55
2023-03-11T14:27:02.061Z,69.16
2023-03-11T14:29:36.709Z,68.96
2023-03-11T14:32:28.486Z,69.10
2023-03-11T14:34:55.896Z,69.45
2023-03-11T14:37:38.622Z,69.30
2023-03-11T14:40:37.770Z,68.83
2023-03-11T14:43:08.213Z,68.51
2023-03-11T14:45:42.028Z,67.74
2023-03-11T14:48:30.663Z,67.05
2023-03-11T14:51:01.294Z,66.30
2023-03-11T14:54:02.436Z,66.17
2023-03-11T14:56:32.664Z,65.50
2023-03-11T14:59:15.268Z,64.86
2023-03-11T15:01:46.668Z,64.37
2023-03-11T15:04:38.172Z,64.37
2023-03-11T15:07:08.440Z,64.41
2023-03-11T15:09:41.074Z,64.35
2023-03-11T15:12:28.553Z,64.39
2023-03-11T15:14:55.690Z,64.20
2023-03-11T15:17:34.718Z,64.23
2023-03-11T15:20:07.592Z,63.91
2023-03-11T15:22:41.361Z,63.66
2023-03-11T15:25:18.462Z,63.31
2023-03-11T15:27:46.408Z,63.15
2023-03-11T15:30:27.342Z,62.74
2023-03-11T15:32:55.615Z,62.63
2023-03-11T15:35:28.273Z,62.23
2023-03-11T15:38:26.354Z,61.80
2023-03-11T15:41:01.142Z,61.40
2023-03-11T15:43:34.597Z,61.60
2023-03-11T15:46:03.540Z,61.38
2023-03-11T15:48:31.379Z,61.47
2023-03-11T15:51:00.578Z,61.33
2023-03-11T15:53:30.267Z,61.46
2023-03-11T15:56:12.423Z,61.25
2023-03-11T15:58:39.508Z,61.36
2023-03-11T16:01:06.641Z,61.38
2023-03-11T16:03:33.710Z,61.53
2023-03-11T16:06:00.700Z,61.29
2023-03-11T16:08:27.721Z,61.05
2023-03-11T16:10:55.268Z,61.18
2023-03-11T16:13:23.437Z,61.26
2023-03-11T16:15:50.450Z,61.48
2023-03-11T16:18:17.570Z,61.42
2023-03-11T16:20:50.543Z,61.42
2023-03-11T16:23:26.183Z,61.48
2023-03-11T16:26:04.114Z,61.23
2023-03-11T16:28:31.552Z,61.04
2023-03-11T16:30:58.673Z,61.10
2023-03-11T16:33:26.081Z,61.01
2023-03-11T16:35:53.195Z,61.12
2023-03-11T16:38:23.068Z,60.81
2023-03-11T16:41:02.216Z,60.79
2023-03-11T16:43:31.749Z,60.96
2023-03-11T16:45:58.783Z,61.28
2023-03-11T16:48:26.224Z,61.39
2023-03-11T16:50:53.264Z,61.63
2023-03-11T16:53:20.541Z,61.99
2023-03-11T16:55:48.949Z,62.74
2023-03-11T16:58:16.054Z,63.37
2023-03-11T17:00:43.478Z,63.46
2023-03-11T17:03:18.221Z,64.17
2023-03-11T17:05:48.446Z,64.12
2023-03-11T17:08:18.153Z,64.62
2023-03-11T17:10:46.474Z,64.80
2023-03-11T17:13:17.104Z,64.95
2023-03-11T17:15:45.875Z,64.87
2023-03-11T17:18:13.738Z,64.83
2023-03-11T17:20:43.584Z,64.80
2023-03-11T17:23:10.750Z,64.77
2023-03-11T17:25:41.701Z,64.47
2023-03-11T17:28:09.477Z,64.82
2023-03-11T17:30:37.770Z,64.70
2023-03-11T17:33:05.216Z,65.06
2023-03-11T17:35:32.348Z,65.01
2023-03-11T17:37:59.389Z,65.00
2023-03-11T17:40:27.181Z,65.06
2023-03-11T17:42:54.199Z,64.72
2023-03-11T17:45:21.248Z,65.27
2023-03-11T17:47:48.256Z,64.77
2023-03-11T17:50:15.513Z,65.01
2023-03-11T17:52:42.548Z,65.22
2023-03-11T17:55:10.231Z,65.30
2023-03-11T17:57:45.152Z,65.19
2023-03-11T18:00:14.985Z,65.17
2023-03-11T18:02:42.439Z,65.44
2023-03-11T18:05:09.745Z,65.50
2023-03-11T18:07:40.981Z,64.91
2023-03-11T18:10:10.605Z,65.05
2023-03-11T18:12:39.297Z,64.66
2023-03-11T18:15:11.976Z,64.42
2023-03-11T18:17:39.118Z,64.53
2023-03-11T18:20:06.877Z,64.47
2023-03-11T18:22:35.369Z,64.33
2023-03-11T18:25:02.937Z,64.28
2023-03-11T18:27:30.196Z,63.44
2023-03-11T18:29:57.329Z,63.22
2023-03-11T18:32:24.785Z,63.04
2023-03-11T18:34:52.445Z,63.00
2023-03-11T18:37:19.841Z,63.06
2023-03-11T18:39:46.898Z,62.81
2023-03-11T18:42:16.140Z,62.95
2023-03-11T18:44:44.466Z,62.60
2023-03-11T18:47:11.682Z,62.41
2023-03-11T18:49:39.173Z,62.30
2023-03-11T18:52:06.207Z,62.15
2023-03-11T18:54:33.312Z,62.15
2023-03-11T18:57:00.299Z,61.82
2023-03-11T18:59:27.925Z,61.85
2023-03-11T19:01:55.189Z,61.87
2023-03-11T19:04:22.423Z,62.05
2023-03-11T19:06:50.354Z,62.12
2023-03-11T19:09:21.316Z,61.85
2023-03-11T19:11:48.485Z,62.02
2023-03-11T19:14:15.977Z,61.81
2023-03-11T19:16:43.513Z,61.68
2023-03-11T19:19:11.985Z,61.77
2023-03-11T19:21:39.427Z,61.79
2023-03-11T19:24:06.801Z,61.89
2023-03-11T19:26:44.778Z,61.78
2023-03-11T19:29:14.110Z,62.22
2023-03-11T19:31:41.626Z,62.14
2023-03-11T19:34:08.710Z,62.16
2023-03-11T19:36:35.770Z,62.24
2023-03-11T19:39:03.436Z,62.15
2023-03-11T19:41:30.542Z,62.26
2023-03-11T19:43:57.588Z,61.93
2023-03-11T19:46:24.837Z,61.77
2023-03-11T19:48:56.656Z,62.20
2023-03-11T19:51:25.304Z,62.15
2023-03-11T19:53:53.856Z,62.00
2023-03-11T19:56:21.032Z,61.76
2023-03-11T19:58:49.463Z,61.93
2023-03-11T20:01:21.855Z,61.79
2023-03-11T20:03:49.043Z,62.15
2023-03-11T20:06:18.497Z,62.34
2023-03-11T20:08:45.685Z,62.54
2023-03-11T20:11:13.143Z,62.85
2023-03-11T20:13:42.697Z,63.06
2023-03-11T20:16:18.657Z,62.81
2023-03-11T20:18:50.204Z,63.11
2023-03-11T20:21:17.809Z,63.09
2023-03-11T20:23:45.107Z,63.37
2023-03-11T20:26:15.415Z,63.34
2023-03-11T20:28:42.843Z,63.43
2023-03-11T20:31:11.206Z,63.29
2023-03-11T20:33:39.000Z,62.93
2023-03-11T20:36:13.588Z,62.85
2023-03-11T20:38:41.882Z,62.99
2023-03-11T20:41:10.175Z,63.52
2023-03-11T20:43:38.107Z,63.32
2023-03-11T20:46:06.807Z,63.43
2023-03-11T20:48:34.970Z,64.07
2023-03-11T20:51:19.508Z,63.99
2023-03-11T20:53:47.892Z,63.48
2023-03-11T20:56:19.020Z,63.42
2023-03-11T20:58:48.783Z,63.68
2023-03-11T21:01:28.969Z,63.57
2023-03-11T21:04:00.564Z,63.62
2023-03-11T21:06:34.964Z,63.93
2023-03-11T21:09:06.281Z,63.63
2023-03-11T21:11:34.450Z,63.19
2023-03-11T21:14:01.617Z,63.59
2023-03-11T21:16:29.183Z,63.82
2023-03-11T21:18:56.873Z,64.14
2023-03-11T21:21:24.302Z,63.93
2023-03-11T21:23:51.347Z,64.33
2023-03-11T21:26:20.119Z,64.29
2023-03-11T21:28:47.714Z,64.69
2023-03-11T21:31:20.974Z,64.96
2023-03-11T21:33:48.385Z,64.28
2023-03-11T21:36:18.268Z,64.39
2023-03-11T21:38:47.004Z,64.28
2023-03-11T21:41:27.083Z,64.78
2023-03-11T21:43:57.168Z,64.80
2023-03-11T21:46:29.546Z,64.75
2023-03-11T21:48:56.787Z,64.60
2023-03-11T21:51:25.279Z,64.86
2023-03-11T21:53:52.716Z,65.13
2023-03-11T21:56:20.340Z,65.30
2023-03-11T21:58:47.698Z,65.55
2023-03-11T22:01:15.939Z,66.20
2023-03-11T22:03:43.934Z,66.31
2023-03-11T22:06:13.157Z,66.38
2023-03-11T22:08:42.412Z,66.43
2023-03-11T22:11:17.595Z,66.32
2023-03-11T22:13:51.322Z,66.63
2023-03-11T22:16:20.123Z,66.20
2023-03-11T22:18:48.135Z,66.17
2023-03-11T22:21:16.527Z,66.39
2023-03-11T22:23:44.639Z,66.31
2023-03-11T22:26:11.871Z,66.89
2023-03-11T22:28:38.920Z,66.97
2023-03-11T22:31:12.450Z,66.48
2023-03-11T22:33:40.154Z,66.85
2023-03-11T22:36:09.405Z,66.88
2023-03-11T22:38:37.088Z,66.87
2023-03-11T22:41:07.666Z,66.98
2023-03-11T22:43:37.220Z,66.85
2023-03-11T22:46:05.976Z,66.93
2023-03-11T22:48:34.209Z,67.29
2023-03-11T22:51:02.108Z,66.90
2023-03-11T22:53:29.230Z,67.14
2023-03-11T22:55:56.263Z,66.69
2023-03-11T22:58:23.343Z,66.85
2023-03-11T23:00:50.554Z,67.28
2023-03-11T23:03:17.697Z,66.96
2023-03-11T23:05:46.620Z,66.93
2023-03-11T23:08:16.741Z,66.91
2023-03-11T23:10:45.868Z,66.89
2023-03-11T23:13:13.718Z,67.13
2023-03-11T23:15:43.365Z,67.29
2023-03-11T23:18:12.089Z,67.08
2023-03-11T23:20:41.593Z,67.27
2023-03-11T23:23:10.098Z,67.39
2023-03-11T23:25:38.245Z,67.31
2023-03-11T23:28:06.307Z,66.84
2023-03-11T23:30:33.535Z,67.12
2023-03-11T23:33:02.836Z,67.08
2023-03-11T23:35:31.197Z,67.00
2023-03-11T23:37:58.364Z,67.15
2023-03-11T23:40:26.067Z,67.52
2023-03-11T23:42:53.186Z,67.27
2023-03-11T23:45:20.231Z,67.21
2023-03-11T23:47:47.281Z,67.24
2023-03-11T23:50:14.351Z,67.42
2023-03-11T23:52:41.476Z,67.61
2023-03-11T23:55:09.686Z,67.61
2023-03-11T23:57:37.160Z,67.62
